Time;durP1;ratioP1;P1;durP2;ratioP2;P2;SDS_P1;SDS_P2;PMS_P1;PMS_P2;Temp;Humidity;BMP_temperature;BMP_pressure;BME280_temperature;BME280_humidity;BME280_pressure;Samples;Min_cycle;Max_cycle;Signal;HPM_P1;HPM_P2
2022/08/27 00:01:15;;;;;;;;;;;;;;;18.24;66.60;101711.53;5014924;28;19921;-58
2022/08/27 00:03:43;;;;;;;;;;;;;;;18.22;66.75;101712.78;5017795;28;20056;-58
2022/08/27 00:06:11;;;;;;;;;;;;;;;18.17;66.46;101709.81;5022515;28;19948;-59
2022/08/27 00:08:36;;;;;;;;;;;;;;;18.13;66.80;101713.94;5019399;28;19939;-58
2022/08/27 00:11:01;;;;;;;;;;;;;;;18.09;66.50;101718.06;5015772;28;20381;-59
2022/08/27 00:13:26;;;;;;;;;;;;;;;18.06;66.88;101719.28;5024632;28;19924;-59
2022/08/27 00:15:51;;;;;;;;;;;;;;;18.01;67.19;101705.63;5021088;28;19983;-58
2022/08/27 00:18:17;;;;;;;;;;;;;;;17.99;67.05;101702.31;5014389;28;19928;-59
2022/08/27 00:20:43;;;;;;;;;;;;;;;17.97;67.33;101704.34;5028011;28;19917;-58
2022/08/27 00:23:08;;;;;;;;;;;;;;;17.95;67.10;101703.72;5019045;28;19925;-58
2022/08/27 00:25:33;;;;;;;;;;;;;;;17.93;67.37;101708.47;5026096;28;19917;-58
2022/08/27 00:27:58;;;;;;;;;;;;;;;17.91;67.62;101707.81;5022368;28;19913;-59
2022/08/27 00:30:24;;;;;;;;;;;;;;;17.89;67.33;101699.94;5031045;28;19913;-59
2022/08/27 00:32:49;;;;;;;;;;;;;;;17.88;67.65;101700.16;5020408;28;19963;-57
2022/08/27 00:35:15;;;;;;;;;;;;;;;17.86;67.47;101699.50;5020917;28;19917;-59
2022/08/27 00:37:41;;;;;;;;;;;;;;;17.84;67.91;101698.88;5018384;28;20051;-59
2022/08/27 00:40:07;;;;;;;;;;;;;;;17.79;68.00;101706.72;5024711;28;19913;-59
2022/08/27 00:42:32;;;;;;;;;;;;;;;17.72;67.84;101698.63;5021099;28;20016;-59
2022/08/27 00:44:58;;;;;;;;;;;;;;;17.66;68.13;101696.69;5023812;28;20008;-58
2022/08/27 00:47:25;;;;;;;;;;;;;;;17.60;67.84;101697.44;5019700;28;20003;-59
2022/08/27 00:50:05;;;;;;;;;;;;;;;17.55;68.23;101689.97;5024968;28;19917;-58
2022/08/27 00:52:43;;;;;;;;;;;;;;;17.46;69.02;101699.22;5023122;28;19917;-58
2022/08/27 00:55:10;;;;;;;;;;;;;;;17.39;69.30;101701.03;5025133;28;19919;-58
2022/08/27 00:57:37;;;;;;;;;;;;;;;17.32;69.16;101705.50;5018937;28;20427;-58
2022/08/27 01:00:05;;;;;;;;;;;;;;;17.27;69.34;101697.19;5018063;28;19917;-58
2022/08/27 01:02:31;;;;;;;;;;;;;;;17.22;69.41;101705.00;5024623;28;20396;-58
2022/08/27 01:04:59;;;;;;;;;;;;;;;17.19;69.69;101703.53;5014506;28;19975;-60
2022/08/27 01:07:25;;;;;;;;;;;;;;;17.15;70.17;101699.59;5015944;28;19920;-59
2022/08/27 01:09:51;;;;;;;;;;;;;;;17.09;70.04;101705.72;5022197;28;19913;-58
2022/08/27 01:12:17;;;;;;;;;;;;;;;17.02;70.25;101696.75;5018933;28;19912;-59
2022/08/27 01:14:43;;;;;;;;;;;;;;;16.96;70.26;101698.34;5023546;28;19971;-58
2022/08/27 01:17:09;;;;;;;;;;;;;;;16.87;70.52;101696.00;5022428;28;20535;-58
2022/08/27 01:19:38;;;;;;;;;;;;;;;16.74;70.55;101688.63;5021107;28;19920;-58
2022/08/27 01:22:27;;;;;;;;;;;;;;;16.63;70.85;101691.78;5020928;28;19920;-58
2022/08/27 01:24:54;;;;;;;;;;;;;;;16.53;71.07;101689.44;5015082;28;19917;-58
2022/08/27 01:27:21;;;;;;;;;;;;;;;16.49;71.23;101690.81;5027768;28;19923;-57
2022/08/27 01:29:47;;;;;;;;;;;;;;;16.45;71.14;101686.00;5018153;28;19913;-58
2022/08/27 01:32:20;;;;;;;;;;;;;;;16.42;71.48;101681.84;5019049;28;20406;-58
2022/08/27 01:34:46;;;;;;;;;;;;;;;16.39;71.40;101688.41;5021563;28;20535;-58
2022/08/27 01:37:12;;;;;;;;;;;;;;;16.33;71.76;101691.88;5021988;28;19974;-58
2022/08/27 01:39:40;;;;;;;;;;;;;;;16.28;71.96;101680.88;5020677;28;19914;-58
2022/08/27 01:42:07;;;;;;;;;;;;;;;16.24;72.25;101682.28;5023413;28;20455;-58
2022/08/27 01:44:47;;;;;;;;;;;;;;;16.21;72.20;101676.47;5022035;28;19921;-60
2022/08/27 01:47:13;;;;;;;;;;;;;;;16.18;72.31;101674.13;5024599;28;19967;-59
2022/08/27 01:49:38;;;;;;;;;;;;;;;16.18;72.13;101680.31;5014011;28;19925;-58
2022/08/27 01:52:04;;;;;;;;;;;;;;;16.14;72.34;101676.34;5022058;28;19912;-58
2022/08/27 01:54:29;;;;;;;;;;;;;;;16.10;72.78;101675.91;5020558;28;19945;-58
2022/08/27 01:56:55;;;;;;;;;;;;;;;16.09;72.45;101676.09;5016034;28;19919;-58
2022/08/27 01:59:20;;;;;;;;;;;;;;;16.07;72.62;101684.31;5018780;28;19921;-59
2022/08/27 02:01:45;;;;;;;;;;;;;;;16.05;72.70;101677.47;5023175;28;19927;-59
2022/08/27 02:04:10;;;;;;;;;;;;;;;16.04;72.79;101673.97;5024963;28;19921;-59
2022/08/27 02:06:35;;;;;;;;;;;;;;;16.03;73.14;101669.63;5017182;28;19935;-58
2022/08/27 02:09:01;;;;;;;;;;;;;;;16.02;73.45;101670.66;5021221;28;19913;-59
2022/08/27 02:11:26;;;;;;;;;;;;;;;16.02;73.42;101677.84;5022525;28;19920;-59
2022/08/27 02:13:51;;;;;;;;;;;;;;;16.00;73.35;101672.69;5018686;28;19912;-58
2022/08/27 02:16:16;;;;;;;;;;;;;;;16.01;73.11;101673.50;5016755;28;19913;-58
2022/08/27 02:18:41;;;;;;;;;;;;;;;16.01;73.18;101668.16;5019543;28;19921;-59
2022/08/27 02:21:07;;;;;;;;;;;;;;;15.99;73.57;101667.50;5015405;28;19963;-58
2022/08/27 02:23:33;;;;;;;;;;;;;;;15.95;73.45;101666.22;5021693;28;19917;-59
2022/08/27 02:25:58;;;;;;;;;;;;;;;15.91;73.68;101668.44;5018231;28;19956;-58
2022/08/27 02:28:23;;;;;;;;;;;;;;;15.89;73.78;101674.97;5020860;28;19986;-57
2022/08/27 02:30:48;;;;;;;;;;;;;;;15.85;73.60;101668.31;5018639;28;19917;-58
2022/08/27 02:33:14;;;;;;;;;;;;;;;15.83;73.60;101670.38;5019575;28;19920;-57
2022/08/27 02:35:41;;;;;;;;;;;;;;;15.81;73.57;101670.53;5022869;28;20381;-57
2022/08/27 02:38:07;;;;;;;;;;;;;;;15.78;73.78;101668.25;5020969;28;20400;-58
2022/08/27 02:40:32;;;;;;;;;;;;;;;15.77;73.81;101671.94;5021260;28;19953;-58
2022/08/27 02:42:58;;;;;;;;;;;;;;;15.78;73.57;101663.72;5016074;28;20002;-58
2022/08/27 02:45:23;;;;;;;;;;;;;;;15.78;73.80;101655.69;5019713;28;19974;-58
2022/08/27 02:47:48;;;;;;;;;;;;;;;15.78;74.18;101661.03;5019832;28;19917;-58
2022/08/27 02:50:13;;;;;;;;;;;;;;;15.76;74.25;101660.41;5022071;28;20312;-59
2022/08/27 02:52:39;;;;;;;;;;;;;;;15.71;74.13;101652.09;5018222;28;19966;-59
2022/08/27 02:55:05;;;;;;;;;;;;;;;15.68;73.88;101659.66;5016293;28;19952;-58
2022/08/27 02:57:30;;;;;;;;;;;;;;;15.66;74.21;101657.16;5018025;28;19917;-58
2022/08/27 02:59:55;;;;;;;;;;;;;;;15.63;74.16;101657.53;5022263;28;20004;-58
2022/08/27 03:02:20;;;;;;;;;;;;;;;15.61;74.55;101656.88;5017871;28;19921;-58
2022/08/27 03:04:46;;;;;;;;;;;;;;;15.62;74.44;101660.41;5023981;28;19917;-58
2022/08/27 03:07:12;;;;;;;;;;;;;;;15.62;74.62;101658.56;5020616;28;19914;-59
2022/08/27 03:09:37;;;;;;;;;;;;;;;15.63;74.90;101656.72;5020163;28;19913;-58
2022/08/27 03:12:03;;;;;;;;;;;;;;;15.64;75.23;101658.38;5019837;28;19913;-58
2022/08/27 03:14:28;;;;;;;;;;;;;;;15.63;75.05;101654.84;5020201;28;20352;-58
2022/08/27 03:16:53;;;;;;;;;;;;;;;15.63;75.37;101662.91;5020077;28;19920;-58
2022/08/27 03:19:19;;;;;;;;;;;;;;;15.63;75.72;101664.75;5026854;28;20476;-59
2022/08/27 03:21:45;;;;;;;;;;;;;;;15.65;75.83;101662.72;5020390;28;20287;-56
2022/08/27 03:24:10;;;;;;;;;;;;;;;15.66;75.60;101665.19;5020350;28;20015;-58
2022/08/27 03:26:35;;;;;;;;;;;;;;;15.68;75.79;101663.16;5016288;28;19964;-58
2022/08/27 03:29:00;;;;;;;;;;;;;;;15.67;76.28;101661.50;5019429;28;19975;-58
2022/08/27 03:31:26;;;;;;;;;;;;;;;15.65;76.03;101668.91;5020759;28;20298;-58
2022/08/27 03:33:53;;;;;;;;;;;;;;;15.65;75.66;101662.72;5017997;28;19912;-59
2022/08/27 03:36:18;;;;;;;;;;;;;;;15.63;76.18;101664.75;5021431;28;19920;-58
2022/08/27 03:38:43;;;;;;;;;;;;;;;15.60;76.33;101667.75;5022732;28;19913;-59
2022/08/27 03:41:08;;;;;;;;;;;;;;;15.56;75.95;101667.25;5021303;28;19925;-58
2022/08/27 03:43:34;;;;;;;;;;;;;;;15.50;76.21;101668.84;5026070;28;19920;-58
2022/08/27 03:45:59;;;;;;;;;;;;;;;15.45;75.79;101668.56;5021861;28;20422;-59
2022/08/27 03:48:25;;;;;;;;;;;;;;;15.41;76.03;101669.09;5030212;28;19917;-59
2022/08/27 03:50:50;;;;;;;;;;;;;;;15.36;76.53;101674.19;5026137;28;19924;-58
2022/08/27 03:53:17;;;;;;;;;;;;;;;15.32;76.80;101670.16;5018395;28;20000;-59
2022/08/27 03:55:42;;;;;;;;;;;;;;;15.30;77.04;101669.53;5017233;28;19914;-59
2022/08/27 03:58:09;;;;;;;;;;;;;;;15.29;76.91;101665.19;5018362;28;19913;-58
2022/08/27 04:00:34;;;;;;;;;;;;;;;15.31;77.05;101668.50;5022755;28;19913;-58
2022/08/27 04:02:59;;;;;;;;;;;;;;;15.31;77.17;101664.00;5024172;28;19932;-58
2022/08/27 04:05:25;;;;;;;;;;;;;;;15.32;77.10;101665.66;5020206;28;19917;-59
2022/08/27 04:07:50;;;;;;;;;;;;;;;15.33;77.57;101669.19;5023010;28;20007;-58
2022/08/27 04:10:16;;;;;;;;;;;;;;;15.32;77.53;101668.31;5025342;28;19917;-58
2022/08/27 04:12:42;;;;;;;;;;;;;;;15.31;77.37;101665.84;5037345;28;19999;-57
2022/08/27 04:15:08;;;;;;;;;;;;;;;15.29;77.76;101662.50;5032799;28;20011;-58
2022/08/27 04:17:33;;;;;;;;;;;;;;;15.27;77.93;101662.69;5027120;28;19971;-57
2022/08/27 04:19:58;;;;;;;;;;;;;;;15.25;78.21;101663.88;5030816;28;19952;-58
2022/08/27 04:22:24;;;;;;;;;;;;;;;15.21;78.26;101657.25;5030037;28;20384;-56
2022/08/27 04:24:49;;;;;;;;;;;;;;;15.19;78.00;101662.78;5042291;28;19921;-58
2022/08/27 04:27:15;;;;;;;;;;;;;;;15.18;77.83;101655.75;5035118;28;19916;-58
2022/08/27 04:29:41;;;;;;;;;;;;;;;15.18;77.78;101661.94;5034490;28;19928;-58
2022/08/27 04:32:06;;;;;;;;;;;;;;;15.18;77.86;101659.25;5027809;28;20435;-57
2022/08/27 04:34:32;;;;;;;;;;;;;;;15.19;78.31;101665.44;5040146;28;19978;-58
2022/08/27 04:36:57;;;;;;;;;;;;;;;15.17;78.38;101670.97;5034895;28;20397;-58
2022/08/27 04:39:23;;;;;;;;;;;;;;;15.15;78.05;101662.31;5032296;28;20652;-58
2022/08/27 04:41:49;;;;;;;;;;;;;;;15.16;78.58;101665.81;5033728;28;20363;-58
2022/08/27 04:44:14;;;;;;;;;;;;;;;15.15;78.44;101664.97;5044502;28;19924;-59
2022/08/27 04:46:40;;;;;;;;;;;;;;;15.15;78.83;101672.19;5029100;28;19925;-58
2022/08/27 04:49:06;;;;;;;;;;;;;;;15.19;78.52;101676.97;5023553;28;20445;-58
2022/08/27 04:51:32;;;;;;;;;;;;;;;15.22;78.01;101675.78;5030980;28;20011;-57
2022/08/27 04:53:58;;;;;;;;;;;;;;;15.27;78.31;101675.25;5024968;28;20012;-58
2022/08/27 04:56:23;;;;;;;;;;;;;;;15.34;78.18;101668.19;5028577;28;19952;-58
2022/08/27 04:58:49;;;;;;;;;;;;;;;15.38;77.87;101672.16;5032160;28;19909;-58
2022/08/27 05:01:19;;;;;;;;;;;;;;;15.39;78.05;101673.81;5032122;28;20670;-58
2022/08/27 05:03:44;;;;;;;;;;;;;;;15.43;77.75;101669.75;5020417;28;19923;-58
2022/08/27 05:06:10;;;;;;;;;;;;;;;15.46;78.03;101670.22;5027240;28;20351;-59
2022/08/27 05:08:35;;;;;;;;;;;;;;;15.50;77.75;101673.34;5029452;28;19923;-58
2022/08/27 05:11:01;;;;;;;;;;;;;;;15.53;77.68;101672.16;5023980;28;19913;-60
2022/08/27 05:13:27;;;;;;;;;;;;;;;15.57;77.50;101682.31;5031550;28;19936;-59
2022/08/27 05:16:00;;;;;;;;;;;;;;;15.62;77.89;101681.81;5041117;28;19964;-60
2022/08/27 05:18:25;;;;;;;;;;;;;;;15.65;77.70;101684.13;5047704;28;19955;-57
2022/08/27 05:20:50;;;;;;;;;;;;;;;15.67;77.67;101688.28;5036290;28;19952;-57
2022/08/27 05:23:17;;;;;;;;;;;;;;;15.73;77.67;101690.22;5042929;28;19916;-58
2022/08/27 05:25:44;;;;;;;;;;;;;;;15.76;77.63;101687.19;5027463;28;19929;-58
2022/08/27 05:28:10;;;;;;;;;;;;;;;15.80;77.53;101683.09;5023935;28;19917;-56
2022/08/27 05:30:40;;;;;;;;;;;;;;;15.84;77.59;101688.94;5031079;28;19909;-58
2022/08/27 05:33:06;;;;;;;;;;;;;;;15.88;77.61;101687.53;5040093;28;19909;-58
2022/08/27 05:35:32;;;;;;;;;;;;;;;15.92;77.79;101685.34;5027537;28;19917;-58
2022/08/27 05:37:58;;;;;;;;;;;;;;;15.94;77.52;101692.19;5027047;28;19916;-58
2022/08/27 05:40:24;;;;;;;;;;;;;;;15.96;77.73;101692.00;5033709;28;19932;-58
2022/08/27 05:42:49;;;;;;;;;;;;;;;15.98;77.64;101695.31;5028398;28;19913;-58
2022/08/27 05:45:15;;;;;;;;;;;;;;;16.01;77.88;101694.94;5042744;28;19966;-58
2022/08/27 05:47:41;;;;;;;;;;;;;;;16.05;77.61;101691.69;5031716;28;19970;-58
2022/08/27 05:50:06;;;;;;;;;;;;;;;16.11;77.78;101690.13;5019943;28;19996;-58
2022/08/27 05:52:33;;;;;;;;;;;;;;;16.15;77.89;101695.94;5028685;28;20002;-57
2022/08/27 05:54:58;;;;;;;;;;;;;;;16.19;77.88;101689.19;5028858;28;19920;-57
2022/08/27 05:57:23;;;;;;;;;;;;;;;16.23;77.78;101691.34;5028393;28;19912;-58
2022/08/27 06:02:35;;;;;;;;;;;;;;;16.27;78.23;101695.28;5027762;28;20023;-58
2022/08/27 06:05:02;;;;;;;;;;;;;;;16.26;78.86;101696.31;5039047;28;19938;-60
2022/08/27 06:07:28;;;;;;;;;;;;;;;16.27;79.09;101695.28;5033854;28;19909;-58
2022/08/27 06:09:54;;;;;;;;;;;;;;;16.29;78.92;101695.09;5035722;28;19990;-57
2022/08/27 06:12:19;;;;;;;;;;;;;;;16.32;79.20;101698.25;5029507;28;20344;-58
2022/08/27 06:14:44;;;;;;;;;;;;;;;16.33;78.91;101701.75;5035273;28;19916;-58
2022/08/27 06:17:09;;;;;;;;;;;;;;;16.36;78.74;101710.25;5041350;28;20453;-58
2022/08/27 06:19:35;;;;;;;;;;;;;;;16.39;79.16;101699.16;5040430;28;20396;-59
2022/08/27 06:22:01;;;;;;;;;;;;;;;16.37;79.19;101706.53;5028333;28;19920;-57
2022/08/27 06:24:26;;;;;;;;;;;;;;;16.33;79.58;101707.13;5032154;28;19920;-58
2022/08/27 06:26:52;;;;;;;;;;;;;;;16.34;79.43;101706.09;5027328;28;20002;-58
2022/08/27 06:29:18;;;;;;;;;;;;;;;16.35;79.20;101711.25;5035202;28;20300;-58
2022/08/27 06:31:43;;;;;;;;;;;;;;;16.41;79.14;101704.31;5027432;28;20479;-58
2022/08/27 06:34:09;;;;;;;;;;;;;;;16.43;79.27;101711.16;5026851;28;19913;-58
2022/08/27 06:36:35;;;;;;;;;;;;;;;16.49;79.09;101704.22;5030412;28;19909;-58
2022/08/27 06:39:01;;;;;;;;;;;;;;;16.56;79.38;101702.44;5035828;28;19921;-59
2022/08/27 06:41:27;;;;;;;;;;;;;;;16.64;79.57;101710.38;5034200;28;19939;-58
2022/08/27 06:43:53;;;;;;;;;;;;;;;16.70;79.27;101711.50;5040141;28;20361;-58
2022/08/27 06:46:20;;;;;;;;;;;;;;;16.78;79.00;101707.88;5038531;28;19915;-58
2022/08/27 06:48:46;;;;;;;;;;;;;;;16.83;78.89;101717.03;5028140;28;19924;-58
2022/08/27 06:51:16;;;;;;;;;;;;;;;16.89;79.01;101712.75;5029169;28;20396;-58
2022/08/27 06:53:41;;;;;;;;;;;;;;;16.94;78.67;101711.13;5040894;28;19912;-58
2022/08/27 06:56:08;;;;;;;;;;;;;;;16.99;78.49;101715.94;5034457;28;19958;-58
2022/08/27 06:58:34;;;;;;;;;;;;;;;17.02;78.53;101715.53;5029430;28;20004;-59
2022/08/27 07:01:00;;;;;;;;;;;;;;;16.98;78.39;101700.84;5033440;28;20510;-59
2022/08/27 07:03:25;;;;;;;;;;;;;;;17.07;78.01;101707.78;5032110;28;19908;-58
2022/08/27 07:05:51;;;;;;;;;;;;;;;17.09;77.89;101712.94;5038263;28;19917;-58
2022/08/27 07:08:16;;;;;;;;;;;;;;;17.12;77.84;101699.13;5029181;28;19913;-58
2022/08/27 07:10:42;;;;;;;;;;;;;;;17.15;77.90;101707.63;5051217;28;19914;-58
2022/08/27 07:13:07;;;;;;;;;;;;;;;17.18;77.90;101717.97;5046885;28;19915;-58
2022/08/27 07:15:32;;;;;;;;;;;;;;;17.21;77.54;101714.09;5040889;28;20008;-58
2022/08/27 07:17:59;;;;;;;;;;;;;;;17.26;77.34;101708.97;5033701;28;20536;-58
2022/08/27 07:20:24;;;;;;;;;;;;;;;17.31;77.28;101711.88;5035698;28;19996;-57
2022/08/27 07:22:50;;;;;;;;;;;;;;;17.34;77.45;101720.38;5039594;28;19923;-58
2022/08/27 07:25:19;;;;;;;;;;;;;;;17.36;76.88;101714.84;5042777;28;19916;-58
2022/08/27 07:27:48;;;;;;;;;;;;;;;17.43;76.84;101715.72;5043476;28;19913;-58
2022/08/27 07:30:14;;;;;;;;;;;;;;;17.48;76.95;101718.66;5032931;28;19964;-58
2022/08/27 07:32:40;;;;;;;;;;;;;;;17.56;76.57;101720.34;5036111;28;19909;-58
2022/08/27 07:35:08;;;;;;;;;;;;;;;17.63;76.65;101718.53;5039317;28;19924;-58
2022/08/27 07:37:34;;;;;;;;;;;;;;;17.72;76.37;101727.34;5039207;28;19920;-58
2022/08/27 07:39:59;;;;;;;;;;;;;;;17.80;75.78;101724.50;5041169;28;19909;-58
2022/08/27 07:45:08;;;;;;;;;;;;;;;17.98;75.27;101724.84;5041988;28;19959;-58
2022/08/27 07:47:34;;;;;;;;;;;;;;;18.06;74.79;101721.97;5040895;28;19909;-58
2022/08/27 07:49:59;;;;;;;;;;;;;;;18.13;73.66;101722.00;5044514;28;19916;-58
2022/08/27 07:52:26;;;;;;;;;;;;;;;18.22;72.97;101728.91;5048121;28;19909;-58
2022/08/27 07:54:51;;;;;;;;;;;;;;;18.29;72.87;101728.94;5035384;28;20387;-58
2022/08/27 07:57:16;;;;;;;;;;;;;;;18.36;72.28;101729.78;5036422;28;19913;-59
2022/08/27 07:59:42;;;;;;;;;;;;;;;18.43;72.01;101725.25;5035640;28;19936;-58
2022/08/27 08:02:07;;;;;;;;;;;;;;;18.51;71.84;101730.47;5034148;28;19909;-58
2022/08/27 08:04:32;;;;;;;;;;;;;;;18.60;71.63;101731.94;5037016;28;19920;-58
2022/08/27 08:06:57;;;;;;;;;;;;;;;18.70;71.20;101728.91;5048916;28;20011;-58
2022/08/27 08:09:23;;;;;;;;;;;;;;;18.80;70.45;101732.06;5048448;28;19917;-58
2022/08/27 08:11:49;;;;;;;;;;;;;;;18.90;70.27;101731.66;5032773;28;19913;-58
2022/08/27 08:14:14;;;;;;;;;;;;;;;19.02;70.36;101730.00;5034919;28;19909;-58
2022/08/27 08:16:40;;;;;;;;;;;;;;;19.12;70.28;101727.78;5026107;28;20512;-58
2022/08/27 08:19:05;;;;;;;;;;;;;;;19.19;69.75;101731.28;5043870;28;19954;-58
2022/08/27 08:21:31;;;;;;;;;;;;;;;19.27;68.93;101728.38;5041607;28;19928;-57
2022/08/27 08:23:56;;;;;;;;;;;;;;;19.35;67.67;101730.88;5036445;28;20380;-58
2022/08/27 08:26:22;;;;;;;;;;;;;;;19.45;67.69;101731.31;5032489;28;19912;-58
2022/08/27 08:28:47;;;;;;;;;;;;;;;19.55;67.23;101735.47;5043792;28;19909;-58
2022/08/27 08:31:13;;;;;;;;;;;;;;;19.62;66.76;101733.59;5042044;28;20407;-58
2022/08/27 08:33:38;;;;;;;;;;;;;;;19.66;65.93;101732.13;5038281;28;19917;-58
2022/08/27 08:36:05;;;;;;;;;;;;;;;19.68;64.67;101741.69;5030561;28;19912;-58
2022/08/27 08:38:30;;;;;;;;;;;;;;;19.72;64.44;101742.09;5033526;28;19909;-59
2022/08/27 08:40:55;;;;;;;;;;;;;;;19.80;64.92;101739.19;5035595;28;19921;-58
2022/08/27 08:43:36;;;;;;;;;;;;;;;19.92;64.74;101740.19;5034253;28;19956;-58
2022/08/27 08:46:08;;;;;;;;;;;;;;;20.03;64.68;101744.13;5047711;28;19970;-57
2022/08/27 08:48:34;;;;;;;;;;;;;;;20.09;63.54;101754.91;5033129;28;20009;-58
2022/08/27 08:51:06;;;;;;;;;;;;;;;20.17;63.77;101744.91;5035093;28;20020;-58
2022/08/27 08:53:46;;;;;;;;;;;;;;;20.20;62.74;101749.88;5041392;28;20265;-58
2022/08/27 08:56:16;;;;;;;;;;;;;;;20.23;62.63;101744.88;5040985;28;19944;-58
2022/08/27 08:58:48;;;;;;;;;;;;;;;20.29;62.48;101749.47;5027128;28;19921;-58
2022/08/27 09:01:15;;;;;;;;;;;;;;;20.33;62.22;101749.84;5036382;28;19913;-58
2022/08/27 09:03:43;;;;;;;;;;;;;;;20.35;62.19;101753.16;5030158;28;20380;-59
2022/08/27 09:06:27;;;;;;;;;;;;;;;20.42;61.84;101748.59;5032380;28;19913;-57
2022/08/27 09:08:53;;;;;;;;;;;;;;;20.46;61.08;101755.22;5022932;28;20000;-58
2022/08/27 09:11:24;;;;;;;;;;;;;;;20.47;60.78;101743.38;5030117;28;20524;-59
2022/08/27 09:14:15;;;;;;;;;;;;;;;20.45;60.56;101748.16;5026545;28;19920;-58
2022/08/27 09:16:40;;;;;;;;;;;;;;;20.41;60.41;101755.03;5002682;28;19920;-58
2022/08/27 09:19:06;;;;;;;;;;;;;;;20.38;60.92;101761.66;5032233;28;19916;-59
2022/08/27 09:21:48;;;;;;;;;;;;;;;20.40;60.55;101761.47;5024067;28;19923;-57
2022/08/27 09:24:13;;;;;;;;;;;;;;;20.48;60.11;101758.53;5033241;28;19917;-59
2022/08/27 09:26:40;;;;;;;;;;;;;;;20.55;60.22;101756.66;5039762;28;19920;-58
2022/08/27 09:29:17;;;;;;;;;;;;;;;20.68;60.05;101753.88;5028599;28;20027;-58
2022/08/27 09:31:44;;;;;;;;;;;;;;;20.84;60.33;101759.84;5033572;28;20385;-58
2022/08/27 09:34:11;;;;;;;;;;;;;;;21.02;59.74;101759.94;5036519;28;19920;-58
2022/08/27 09:36:58;;;;;;;;;;;;;;;21.15;59.32;101753.63;5031013;28;20002;-58
2022/08/27 09:39:28;;;;;;;;;;;;;;;21.32;58.40;101755.59;5030896;28;19913;-59
2022/08/27 09:41:54;;;;;;;;;;;;;;;21.40;57.78;101749.13;5038610;28;19909;-58
2022/08/27 09:44:19;;;;;;;;;;;;;;;21.57;57.68;101754.78;5037402;28;19925;-59
2022/08/27 09:46:56;;;;;;;;;;;;;;;21.72;57.16;101747.19;5026934;28;19924;-57
2022/08/27 09:49:22;;;;;;;;;;;;;;;21.75;57.28;101738.63;5033097;28;20019;-58
2022/08/27 09:51:48;;;;;;;;;;;;;;;21.78;56.69;101746.28;5044255;28;20044;-58
2022/08/27 09:54:32;;;;;;;;;;;;;;;21.79;56.50;101744.41;5037722;28;19956;-59
2022/08/27 09:56:58;;;;;;;;;;;;;;;21.78;56.79;101751.69;5026418;28;19942;-58
2022/08/27 09:59:23;;;;;;;;;;;;;;;21.81;56.67;101745.84;5030142;28;20377;-58
2022/08/27 10:01:57;;;;;;;;;;;;;;;21.86;56.70;101750.56;5042955;28;19908;-58
2022/08/27 10:04:32;;;;;;;;;;;;;;;21.88;56.72;101754.69;5043128;28;19978;-58
2022/08/27 10:06:57;;;;;;;;;;;;;;;21.88;56.79;101751.16;5040545;28;19912;-57
2022/08/27 10:09:31;;;;;;;;;;;;;;;21.87;56.82;101754.94;5031093;28;20430;-58
2022/08/27 10:12:08;;;;;;;;;;;;;;;21.81;56.13;101758.53;5033755;28;19916;-59
2022/08/27 10:14:39;;;;;;;;;;;;;;;21.77;55.94;101752.75;5040760;28;20257;-59
2022/08/27 10:17:10;;;;;;;;;;;;;;;21.78;55.93;101750.88;5035359;28;20049;-58
2022/08/27 10:19:57;;;;;;;;;;;;;;;21.78;55.33;101749.00;5031640;28;20420;-59
2022/08/27 10:22:30;;;;;;;;;;;;;;;21.80;55.52;101746.88;5031522;28;19963;-58
2022/08/27 10:25:02;;;;;;;;;;;;;;;21.82;55.59;101747.50;5041817;28;19924;-58
2022/08/27 10:27:46;;;;;;;;;;;;;;;21.86;55.76;101746.00;5034059;28;20693;-59
2022/08/27 10:30:18;;;;;;;;;;;;;;;21.90;55.81;101741.78;5029619;28;20003;-58
2022/08/27 10:32:54;;;;;;;;;;;;;;;21.94;55.80;101742.97;5023921;28;19909;-58
2022/08/27 10:35:22;;;;;;;;;;;;;;;21.98;55.14;101745.28;5038366;28;19938;-58
2022/08/27 10:37:53;;;;;;;;;;;;;;;22.02;55.03;101743.75;5035912;28;20711;-59
2022/08/27 10:40:26;;;;;;;;;;;;;;;22.06;54.76;101745.00;5030503;28;20403;-59
2022/08/27 10:43:04;;;;;;;;;;;;;;;22.14;54.65;101739.28;5040009;28;19913;-58
2022/08/27 10:45:48;;;;;;;;;;;;;;;22.21;54.60;101743.56;5041388;28;19913;-58
2022/08/27 10:48:23;;;;;;;;;;;;;;;22.37;54.11;101734.03;5033660;28;20373;-58
2022/08/27 10:50:53;;;;;;;;;;;;;;;22.45;54.19;101736.41;5036721;28;19978;-59
2022/08/27 10:53:38;;;;;;;;;;;;;;;22.49;54.24;101740.31;5040768;28;20382;-59
2022/08/27 10:56:13;;;;;;;;;;;;;;;22.46;53.85;101746.19;5035619;28;19943;-57
2022/08/27 10:58:47;;;;;;;;;;;;;;;22.47;53.73;101742.41;5036155;28;19927;-58
2022/08/27 11:01:19;;;;;;;;;;;;;;;22.50;53.13;101736.53;5027809;28;20577;-59
2022/08/27 11:03:48;;;;;;;;;;;;;;;22.54;52.78;101731.50;5039743;28;19917;-59
2022/08/27 11:06:19;;;;;;;;;;;;;;;22.56;52.30;101729.41;5044977;28;19908;-58
2022/08/27 11:08:51;;;;;;;;;;;;;;;22.61;52.24;101726.84;5035529;28;19916;-59
2022/08/27 11:11:27;;;;;;;;;;;;;;;22.64;51.88;101736.41;5041581;28;19948;-59
2022/08/27 11:13:53;;;;;;;;;;;;;;;22.66;52.17;101726.16;5029764;28;19916;-56
2022/08/27 11:16:26;;;;;;;;;;;;;;;22.69;51.79;101731.94;5028827;28;19917;-56
2022/08/27 11:18:55;;;;;;;;;;;;;;;22.69;51.50;101725.69;5028757;28;20395;-58
2022/08/27 11:21:36;;;;;;;;;;;;;;;22.70;51.94;101733.59;5043889;28;19908;-58
2022/08/27 11:24:10;;;;;;;;;;;;;;;22.74;51.62;101725.81;5028888;28;19917;-57
2022/08/27 11:26:37;;;;;;;;;;;;;;;22.82;51.49;101728.25;5027097;28;20380;-57
2022/08/27 11:29:09;;;;;;;;;;;;;;;22.91;51.40;101720.63;5031647;28;20497;-58
2022/08/27 11:31:48;;;;;;;;;;;;;;;23.02;51.00;101719.81;5038757;28;19940;-58
2022/08/27 11:34:17;;;;;;;;;;;;;;;23.17;51.35;101725.66;5039852;28;19908;-58
2022/08/27 11:36:46;;;;;;;;;;;;;;;23.28;51.10;101718.59;5036428;28;19991;-57
2022/08/27 11:39:31;;;;;;;;;;;;;;;23.34;51.05;101717.66;5035003;28;20003;-59
2022/08/27 11:42:14;;;;;;;;;;;;;;;23.41;50.43;101721.06;5031026;28;20003;-59
2022/08/27 11:44:42;;;;;;;;;;;;;;;23.44;50.12;101718.75;5038229;28;19935;-58
2022/08/27 11:47:09;;;;;;;;;;;;;;;23.52;49.87;101717.56;5044877;28;19947;-58
2022/08/27 11:49:51;;;;;;;;;;;;;;;23.61;49.98;101720.78;5033965;28;19919;-58
2022/08/27 11:52:25;;;;;;;;;;;;;;;23.71;49.18;101719.13;5031500;28;19920;-58
2022/08/27 11:54:53;;;;;;;;;;;;;;;23.70;49.13;101722.06;5034080;28;19909;-58
2022/08/27 11:57:25;;;;;;;;;;;;;;;23.66;48.79;101720.88;5041399;28;19951;-59
2022/08/27 11:59:50;;;;;;;;;;;;;;;23.59;48.51;101718.28;5025265;28;19928;-57
2022/08/27 12:02:21;;;;;;;;;;;;;;;23.56;48.70;101721.47;5032388;28;19908;-59
2022/08/27 12:04:46;;;;;;;;;;;;;;;23.53;48.54;101721.09;5036058;28;19919;-58
2022/08/27 12:07:16;;;;;;;;;;;;;;;23.51;48.09;101721.34;5036185;28;20355;-58
2022/08/27 12:10:01;;;;;;;;;;;;;;;23.53;48.61;101718.38;5030952;28;20369;-58
2022/08/27 12:12:29;;;;;;;;;;;;;;;23.58;48.42;101716.66;4990680;28;19921;-58
2022/08/27 12:15:07;;;;;;;;;;;;;;;23.66;48.32;101712.75;5038041;28;19962;-59
2022/08/27 12:17:47;;;;;;;;;;;;;;;23.70;48.28;101706.59;5038477;28;20016;-58
2022/08/27 12:20:25;;;;;;;;;;;;;;;23.77;48.24;101711.94;5030241;28;19956;-58
2022/08/27 12:25:40;;;;;;;;;;;;;;;23.83;47.67;101715.59;5042537;28;19984;-58
2022/08/27 12:28:07;;;;;;;;;;;;;;;23.90;47.86;101713.56;5043610;28;19939;-59
2022/08/27 12:30:33;;;;;;;;;;;;;;;23.94;47.92;101712.03;5039064;28;19913;-59
2022/08/27 12:33:07;;;;;;;;;;;;;;;23.99;47.50;101706.69;5028527;28;19974;-58
2022/08/27 12:35:41;;;;;;;;;;;;;;;24.01;46.86;101710.03;5033736;28;19909;-57
2022/08/27 12:38:33;;;;;;;;;;;;;;;24.04;47.45;101702.22;5036963;28;19913;-58
2022/08/27 12:41:02;;;;;;;;;;;;;;;24.12;47.55;101701.03;5030402;28;20285;-58
2022/08/27 12:43:32;;;;;;;;;;;;;;;24.24;47.61;101709.13;5035625;28;19917;-58
2022/08/27 12:46:01;;;;;;;;;;;;;;;24.33;47.24;101707.75;5028325;28;19963;-58
2022/08/27 12:48:29;;;;;;;;;;;;;;;24.36;46.56;101710.78;5030722;28;19956;-58